Robin DR400/180



Le DR 400/180 Régent, quadriplace de 180 CV.

Caractéristiques :
Moteur Lycoming 180 cv
Consommation : 35 l/h
Autonomie : 4 h 30 + la sécurité
Vitesse de croisière : 120 kts

Equipement :
En plus de l’équipement minimal
Horizon artificiel
VHF
VOR - Radiocompas
Transpondeur
Balise de détresse portable
GPS
Horamètre

Rapport de pesée (cliquez) ** Date du rapport 09/01/2015 ** - Attention ! Ce rapport de pesée est mis en ligne à TITRE INFORMATIF UNIQUEMENT. Vous devez en cas de besoin, consulter le rapport de pesée joint au carnet de route, seul document faisant foi en la matière.

Le DR400/180

Webcam :

Nuit aéronautique

21 Jan 2019

Heure locale,
pour LFDL uniquement.

Lever du soleil aéronautique :08:07
Lever du soleil :08:37
Coucher du soleil :17:44
Coucher du soleil aéronautique :18:14

Metar

LFBI :
2019/01/21 02:00
LFBI 210200Z AUTO 36008KT 9999 OVC018 03/02 Q1021 TEMPO OVC005
LFBI :
Poitiers, France (LFBI) 46-35N 000-19E 120M
Jan 20, 2019 - 09:00 PM EST / 2019.01.21 0200 UTC
Wind: from the N (360 degrees) at 9 MPH (8 KT):0
Visibility: greater than 7 mile(s):0
Sky conditions: overcast
Temperature: 37 F (3 C)
Dew Point: 35 F (2 C)
Relative Humidity: 93%
Pressure (altimeter): 30.15 in. Hg (1021 hPa)
ob: LFBI 210200Z AUTO 36008KT 9999 OVC018 03/02 Q1021 TEMPO OVC005
cycle: 2

Afficher le metar d'une autre station :
Code OACI :

Aéroclub de Loudun


Bellevue
86200 Loudun


Contacter Michel Richez (président)

  • Mail:michel.richez@free.fr
  • Tel:09-50-38-02-06
  • Mobile:06-52-73-09-01



agrandir le plan

Newsletter

Mon e-mail :